sensor_id;sensor_type;location;lat;lon;timestamp;P1;durP1;ratioP1;P2;durP2;ratioP2
3274;SDS011;1649;53.672;10.064;2024-01-11T00:00:04;33.33;;;14.60;;
3274;SDS011;1649;53.672;10.064;2024-01-11T00:02:30;31.40;;;15.65;;
3274;SDS011;1649;53.672;10.064;2024-01-11T00:04:55;29.93;;;13.80;;
3274;SDS011;1649;53.672;10.064;2024-01-11T00:07:21;32.37;;;14.27;;
3274;SDS011;1649;53.672;10.064;2024-01-11T00:09:46;28.57;;;13.10;;
3274;SDS011;1649;53.672;10.064;2024-01-11T00:12:13;29.60;;;13.90;;
3274;SDS011;1649;53.672;10.064;2024-01-11T00:14:38;32.47;;;14.18;;
3274;SDS011;1649;53.672;10.064;2024-01-11T00:17:05;30.38;;;14.93;;
3274;SDS011;1649;53.672;10.064;2024-01-11T00:19:30;31.17;;;14.43;;
3274;SDS011;1649;53.672;10.064;2024-01-11T00:21:56;32.20;;;14.20;;
3274;SDS011;1649;53.672;10.064;2024-01-11T00:24:22;30.57;;;14.00;;
3274;SDS011;1649;53.672;10.064;2024-01-11T00:26:47;30.70;;;14.93;;
3274;SDS011;1649;53.672;10.064;2024-01-11T00:29:13;30.73;;;14.90;;
3274;SDS011;1649;53.672;10.064;2024-01-11T00:31:38;29.57;;;14.33;;
3274;SDS011;1649;53.672;10.064;2024-01-11T00:34:04;34.00;;;15.70;;
3274;SDS011;1649;53.672;10.064;2024-01-11T00:36:30;33.90;;;14.97;;
3274;SDS011;1649;53.672;10.064;2024-01-11T00:38:55;35.27;;;15.53;;
3274;SDS011;1649;53.672;10.064;2024-01-11T00:41:21;32.23;;;15.73;;
3274;SDS011;1649;53.672;10.064;2024-01-11T00:43:46;33.47;;;14.97;;
3274;SDS011;1649;53.672;10.064;2024-01-11T00:46:12;34.07;;;15.77;;
3274;SDS011;1649;53.672;10.064;2024-01-11T00:48:37;30.70;;;15.10;;
3274;SDS011;1649;53.672;10.064;2024-01-11T00:51:06;31.87;;;14.87;;
3274;SDS011;1649;53.672;10.064;2024-01-11T00:53:32;34.30;;;14.98;;
3274;SDS011;1649;53.672;10.064;2024-01-11T00:55:58;30.70;;;14.07;;
3274;SDS011;1649;53.672;10.064;2024-01-11T00:58:24;32.40;;;16.23;;
3274;SDS011;1649;53.672;10.064;2024-01-11T01:00:49;31.53;;;14.43;;
3274;SDS011;1649;53.672;10.064;2024-01-11T01:03:15;36.93;;;16.40;;
3274;SDS011;1649;53.672;10.064;2024-01-11T01:05:41;29.80;;;14.70;;
3274;SDS011;1649;53.672;10.064;2024-01-11T01:08:07;34.87;;;15.40;;
3274;SDS011;1649;53.672;10.064;2024-01-11T01:10:32;33.30;;;15.57;;
3274;SDS011;1649;53.672;10.064;2024-01-11T01:12:58;30.13;;;13.40;;
3274;SDS011;1649;53.672;10.064;2024-01-11T01:15:23;36.50;;;15.73;;
3274;SDS011;1649;53.672;10.064;2024-01-11T01:17:49;31.37;;;15.10;;
3274;SDS011;1649;53.672;10.064;2024-01-11T01:20:14;35.43;;;15.90;;
3274;SDS011;1649;53.672;10.064;2024-01-11T01:22:40;32.43;;;14.13;;
3274;SDS011;1649;53.672;10.064;2024-01-11T01:25:05;35.73;;;15.50;;
3274;SDS011;1649;53.672;10.064;2024-01-11T01:27:31;35.27;;;15.27;;
3274;SDS011;1649;53.672;10.064;2024-01-11T01:29:57;34.20;;;15.50;;
3274;SDS011;1649;53.672;10.064;2024-01-11T01:32:22;35.60;;;15.40;;
3274;SDS011;1649;53.672;10.064;2024-01-11T01:34:48;32.57;;;16.23;;
3274;SDS011;1649;53.672;10.064;2024-01-11T01:37:13;37.43;;;16.60;;
3274;SDS011;1649;53.672;10.064;2024-01-11T01:39:39;39.17;;;16.83;;
3274;SDS011;1649;53.672;10.064;2024-01-11T01:42:04;39.33;;;16.23;;
3274;SDS011;1649;53.672;10.064;2024-01-11T01:44:31;35.40;;;16.17;;
3274;SDS011;1649;53.672;10.064;2024-01-11T01:46:56;34.67;;;16.70;;
3274;SDS011;1649;53.672;10.064;2024-01-11T01:49:22;34.27;;;16.47;;
3274;SDS011;1649;53.672;10.064;2024-01-11T01:51:48;36.70;;;16.55;;
3274;SDS011;1649;53.672;10.064;2024-01-11T01:54:15;38.45;;;17.60;;
3274;SDS011;1649;53.672;10.064;2024-01-11T01:56:41;37.65;;;17.08;;
3274;SDS011;1649;53.672;10.064;2024-01-11T01:59:07;39.07;;;16.33;;
3274;SDS011;1649;53.672;10.064;2024-01-11T02:01:33;39.92;;;16.85;;
3274;SDS011;1649;53.672;10.064;2024-01-11T02:03:59;36.67;;;17.10;;
3274;SDS011;1649;53.672;10.064;2024-01-11T02:06:25;43.53;;;17.40;;
3274;SDS011;1649;53.672;10.064;2024-01-11T02:08:52;38.15;;;15.65;;
3274;SDS011;1649;53.672;10.064;2024-01-11T02:11:20;39.95;;;16.90;;
3274;SDS011;1649;53.672;10.064;2024-01-11T02:13:46;44.60;;;19.33;;
3274;SDS011;1649;53.672;10.064;2024-01-11T02:16:12;41.77;;;18.97;;
3274;SDS011;1649;53.672;10.064;2024-01-11T02:18:38;37.90;;;15.95;;
3274;SDS011;1649;53.672;10.064;2024-01-11T02:21:05;34.77;;;17.00;;
3274;SDS011;1649;53.672;10.064;2024-01-11T02:23:34;38.35;;;17.25;;
3274;SDS011;1649;53.672;10.064;2024-01-11T02:26:07;35.72;;;15.30;;
3274;SDS011;1649;53.672;10.064;2024-01-11T02:28:33;36.37;;;17.50;;
3274;SDS011;1649;53.672;10.064;2024-01-11T02:30:58;43.37;;;17.17;;
3274;SDS011;1649;53.672;10.064;2024-01-11T02:33:23;43.60;;;17.00;;
3274;SDS011;1649;53.672;10.064;2024-01-11T02:35:49;42.60;;;17.17;;
3274;SDS011;1649;53.672;10.064;2024-01-11T02:38:16;33.10;;;15.60;;
3274;SDS011;1649;53.672;10.064;2024-01-11T02:40:41;45.43;;;17.57;;
3274;SDS011;1649;53.672;10.064;2024-01-11T02:43:09;44.67;;;16.15;;
3274;SDS011;1649;53.672;10.064;2024-01-11T02:45:35;38.88;;;16.60;;
3274;SDS011;1649;53.672;10.064;2024-01-11T02:48:01;34.83;;;14.83;;
3274;SDS011;1649;53.672;10.064;2024-01-11T02:50:27;35.43;;;15.70;;
3274;SDS011;1649;53.672;10.064;2024-01-11T02:52:52;37.30;;;16.10;;
3274;SDS011;1649;53.672;10.064;2024-01-11T02:55:18;34.23;;;15.03;;
3274;SDS011;1649;53.672;10.064;2024-01-11T02:57:43;35.33;;;15.17;;
3274;SDS011;1649;53.672;10.064;2024-01-11T03:00:09;33.87;;;15.83;;
3274;SDS011;1649;53.672;10.064;2024-01-11T03:02:36;37.20;;;16.30;;
3274;SDS011;1649;53.672;10.064;2024-01-11T03:05:03;38.50;;;15.68;;
3274;SDS011;1649;53.672;10.064;2024-01-11T03:07:28;33.67;;;14.73;;
3274;SDS011;1649;53.672;10.064;2024-01-11T03:09:55;35.40;;;15.25;;
3274;SDS011;1649;53.672;10.064;2024-01-11T03:12:21;36.77;;;16.27;;
3274;SDS011;1649;53.672;10.064;2024-01-11T03:14:47;30.87;;;14.20;;
3274;SDS011;1649;53.672;10.064;2024-01-11T03:17:12;29.73;;;14.30;;
3274;SDS011;1649;53.672;10.064;2024-01-11T03:19:41;35.97;;;14.23;;
3274;SDS011;1649;53.672;10.064;2024-01-11T03:22:06;33.83;;;14.65;;
3274;SDS011;1649;53.672;10.064;2024-01-11T03:24:32;33.70;;;13.17;;
3274;SDS011;1649;53.672;10.064;2024-01-11T03:26:58;30.23;;;14.57;;
3274;SDS011;1649;53.672;10.064;2024-01-11T03:29:23;33.27;;;14.03;;
3274;SDS011;1649;53.672;10.064;2024-01-11T03:31:49;33.93;;;14.33;;
3274;SDS011;1649;53.672;10.064;2024-01-11T03:34:14;32.90;;;14.10;;
3274;SDS011;1649;53.672;10.064;2024-01-11T03:36:40;34.83;;;14.53;;
3274;SDS011;1649;53.672;10.064;2024-01-11T03:39:05;31.13;;;14.03;;
3274;SDS011;1649;53.672;10.064;2024-01-11T03:41:31;35.57;;;14.87;;
3274;SDS011;1649;53.672;10.064;2024-01-11T03:43:57;30.70;;;13.07;;
3274;SDS011;1649;53.672;10.064;2024-01-11T03:46:22;28.13;;;12.97;;
3274;SDS011;1649;53.672;10.064;2024-01-11T03:48:48;32.70;;;14.10;;
3274;SDS011;1649;53.672;10.064;2024-01-11T03:51:13;31.77;;;14.80;;
3274;SDS011;1649;53.672;10.064;2024-01-11T03:53:39;31.40;;;14.10;;
3274;SDS011;1649;53.672;10.064;2024-01-11T03:56:04;35.40;;;14.27;;
3274;SDS011;1649;53.672;10.064;2024-01-11T03:58:30;32.80;;;14.77;;
3274;SDS011;1649;53.672;10.064;2024-01-11T04:00:55;28.60;;;13.83;;
3274;SDS011;1649;53.672;10.064;2024-01-11T04:03:21;36.30;;;15.50;;
3274;SDS011;1649;53.672;10.064;2024-01-11T04:05:46;33.17;;;14.93;;
3274;SDS011;1649;53.672;10.064;2024-01-11T04:08:13;30.58;;;13.98;;
3274;SDS011;1649;53.672;10.064;2024-01-11T04:10:38;35.43;;;15.70;;
3274;SDS011;1649;53.672;10.064;2024-01-11T04:13:04;34.03;;;14.53;;
3274;SDS011;1649;53.672;10.064;2024-01-11T04:15:32;31.17;;;15.32;;
3274;SDS011;1649;53.672;10.064;2024-01-11T04:17:57;32.63;;;15.40;;
3274;SDS011;1649;53.672;10.064;2024-01-11T04:20:23;37.23;;;16.23;;
3274;SDS011;1649;53.672;10.064;2024-01-11T04:22:49;41.88;;;17.40;;
3274;SDS011;1649;53.672;10.064;2024-01-11T04:25:15;37.30;;;16.30;;
3274;SDS011;1649;53.672;10.064;2024-01-11T04:27:40;34.30;;;15.90;;
3274;SDS011;1649;53.672;10.064;2024-01-11T04:30:06;35.47;;;16.50;;
3274;SDS011;1649;53.672;10.064;2024-01-11T04:32:32;32.58;;;15.43;;
3274;SDS011;1649;53.672;10.064;2024-01-11T04:34:57;36.80;;;15.27;;
3274;SDS011;1649;53.672;10.064;2024-01-11T04:37:23;37.47;;;17.33;;
3274;SDS011;1649;53.672;10.064;2024-01-11T04:39:48;35.00;;;13.97;;
3274;SDS011;1649;53.672;10.064;2024-01-11T04:42:14;34.37;;;14.17;;
3274;SDS011;1649;53.672;10.064;2024-01-11T04:44:39;33.00;;;14.93;;
3274;SDS011;1649;53.672;10.064;2024-01-11T04:47:05;32.50;;;15.13;;
3274;SDS011;1649;53.672;10.064;2024-01-11T04:49:30;32.43;;;16.13;;
3274;SDS011;1649;53.672;10.064;2024-01-11T04:51:56;30.17;;;14.07;;
3274;SDS011;1649;53.672;10.064;2024-01-11T04:54:21;33.10;;;15.13;;
3274;SDS011;1649;53.672;10.064;2024-01-11T04:56:47;33.60;;;15.67;;
3274;SDS011;1649;53.672;10.064;2024-01-11T04:59:12;31.53;;;14.53;;
3274;SDS011;1649;53.672;10.064;2024-01-11T05:01:38;40.00;;;15.30;;
3274;SDS011;1649;53.672;10.064;2024-01-11T05:04:03;32.73;;;14.80;;
3274;SDS011;1649;53.672;10.064;2024-01-11T05:06:31;32.72;;;14.85;;
3274;SDS011;1649;53.672;10.064;2024-01-11T05:08:56;33.80;;;14.93;;
3274;SDS011;1649;53.672;10.064;2024-01-11T05:11:22;35.97;;;14.43;;
3274;SDS011;1649;53.672;10.064;2024-01-11T05:13:49;30.00;;;14.00;;
3274;SDS011;1649;53.672;10.064;2024-01-11T05:18:48;28.92;;;13.32;;
3274;SDS011;1649;53.672;10.064;2024-01-11T05:21:13;33.50;;;16.97;;
3274;SDS011;1649;53.672;10.064;2024-01-11T05:23:42;30.87;;;13.73;;
3274;SDS011;1649;53.672;10.064;2024-01-11T05:26:08;36.33;;;15.10;;
3274;SDS011;1649;53.672;10.064;2024-01-11T05:28:34;33.42;;;13.95;;
3274;SDS011;1649;53.672;10.064;2024-01-11T05:31:00;32.90;;;15.10;;
3274;SDS011;1649;53.672;10.064;2024-01-11T05:33:25;36.07;;;14.73;;
3274;SDS011;1649;53.672;10.064;2024-01-11T05:35:51;33.00;;;13.83;;
3274;SDS011;1649;53.672;10.064;2024-01-11T05:38:18;38.05;;;15.48;;
3274;SDS011;1649;53.672;10.064;2024-01-11T05:40:44;38.40;;;17.20;;
3274;SDS011;1649;53.672;10.064;2024-01-11T05:43:09;34.90;;;14.80;;
3274;SDS011;1649;53.672;10.064;2024-01-11T05:45:35;32.13;;;15.10;;
3274;SDS011;1649;53.672;10.064;2024-01-11T05:48:00;26.80;;;12.50;;
3274;SDS011;1649;53.672;10.064;2024-01-11T05:50:26;28.73;;;11.87;;
3274;SDS011;1649;53.672;10.064;2024-01-11T05:52:52;24.77;;;12.03;;
3274;SDS011;1649;53.672;10.064;2024-01-11T05:55:18;29.45;;;11.57;;
3274;SDS011;1649;53.672;10.064;2024-01-11T05:57:44;28.67;;;12.10;;
3274;SDS011;1649;53.672;10.064;2024-01-11T06:00:10;27.58;;;11.93;;
3274;SDS011;1649;53.672;10.064;2024-01-11T06:02:36;23.63;;;9.23;;
3274;SDS011;1649;53.672;10.064;2024-01-11T06:05:02;22.93;;;10.03;;
3274;SDS011;1649;53.672;10.064;2024-01-11T06:07:27;19.97;;;7.87;;
3274;SDS011;1649;53.672;10.064;2024-01-11T06:09:54;18.42;;;7.85;;
3274;SDS011;1649;53.672;10.064;2024-01-11T06:12:19;17.00;;;7.57;;
3274;SDS011;1649;53.672;10.064;2024-01-11T06:14:45;16.05;;;7.55;;
3274;SDS011;1649;53.672;10.064;2024-01-11T06:17:11;19.33;;;8.17;;
3274;SDS011;1649;53.672;10.064;2024-01-11T06:19:37;20.50;;;8.63;;
3274;SDS011;1649;53.672;10.064;2024-01-11T06:22:03;17.10;;;7.25;;
3274;SDS011;1649;53.672;10.064;2024-01-11T06:24:29;17.05;;;6.75;;
3274;SDS011;1649;53.672;10.064;2024-01-11T06:26:54;16.17;;;6.73;;
3274;SDS011;1649;53.672;10.064;2024-01-11T06:29:20;16.17;;;6.87;;
3274;SDS011;1649;53.672;10.064;2024-01-11T06:31:45;16.07;;;7.70;;
3274;SDS011;1649;53.672;10.064;2024-01-11T06:34:11;23.00;;;6.47;;
3274;SDS011;1649;53.672;10.064;2024-01-11T06:36:36;24.60;;;8.73;;
3274;SDS011;1649;53.672;10.064;2024-01-11T06:39:02;19.63;;;7.60;;
3274;SDS011;1649;53.672;10.064;2024-01-11T06:41:29;15.20;;;7.05;;
3274;SDS011;1649;53.672;10.064;2024-01-11T06:43:54;22.53;;;8.90;;
3274;SDS011;1649;53.672;10.064;2024-01-11T06:46:20;24.23;;;8.60;;
3274;SDS011;1649;53.672;10.064;2024-01-11T06:48:46;21.00;;;8.13;;
3274;SDS011;1649;53.672;10.064;2024-01-11T06:51:15;22.70;;;8.02;;
3274;SDS011;1649;53.672;10.064;2024-01-11T06:53:41;23.38;;;9.15;;
3274;SDS011;1649;53.672;10.064;2024-01-11T06:56:16;24.27;;;9.43;;
3274;SDS011;1649;53.672;10.064;2024-01-11T06:58:43;21.25;;;8.63;;
3274;SDS011;1649;53.672;10.064;2024-01-11T07:01:09;28.08;;;9.55;;
3274;SDS011;1649;53.672;10.064;2024-01-11T07:03:35;19.05;;;8.50;;
3274;SDS011;1649;53.672;10.064;2024-01-11T07:06:01;22.17;;;8.30;;
3274;SDS011;1649;53.672;10.064;2024-01-11T07:08:28;21.70;;;8.75;;
3274;SDS011;1649;53.672;10.064;2024-01-11T07:10:54;21.20;;;8.43;;
3274;SDS011;1649;53.672;10.064;2024-01-11T07:13:19;19.37;;;8.90;;
3274;SDS011;1649;53.672;10.064;2024-01-11T07:15:45;23.67;;;8.93;;
3274;SDS011;1649;53.672;10.064;2024-01-11T07:18:10;26.53;;;8.90;;
3274;SDS011;1649;53.672;10.064;2024-01-11T07:20:36;21.10;;;8.47;;
3274;SDS011;1649;53.672;10.064;2024-01-11T07:23:02;24.40;;;8.90;;
3274;SDS011;1649;53.672;10.064;2024-01-11T07:25:27;27.70;;;9.53;;
3274;SDS011;1649;53.672;10.064;2024-01-11T07:27:53;26.63;;;10.00;;
3274;SDS011;1649;53.672;10.064;2024-01-11T07:30:18;22.83;;;8.83;;
3274;SDS011;1649;53.672;10.064;2024-01-11T07:32:44;22.97;;;8.33;;
3274;SDS011;1649;53.672;10.064;2024-01-11T07:35:09;22.77;;;8.57;;
3274;SDS011;1649;53.672;10.064;2024-01-11T07:37:38;25.20;;;9.07;;
3274;SDS011;1649;53.672;10.064;2024-01-11T07:40:05;18.55;;;8.73;;
3274;SDS011;1649;53.672;10.064;2024-01-11T07:42:35;20.80;;;8.05;;
3274;SDS011;1649;53.672;10.064;2024-01-11T07:45:05;22.38;;;7.85;;
3274;SDS011;1649;53.672;10.064;2024-01-11T07:47:32;23.33;;;8.25;;
3274;SDS011;1649;53.672;10.064;2024-01-11T07:49:58;19.77;;;6.97;;
3274;SDS011;1649;53.672;10.064;2024-01-11T07:52:23;23.23;;;7.43;;
3274;SDS011;1649;53.672;10.064;2024-01-11T07:54:49;20.03;;;8.37;;
3274;SDS011;1649;53.672;10.064;2024-01-11T07:57:14;21.70;;;8.17;;
3274;SDS011;1649;53.672;10.064;2024-01-11T07:59:39;20.80;;;8.27;;
3274;SDS011;1649;53.672;10.064;2024-01-11T08:02:05;25.63;;;7.20;;
3274;SDS011;1649;53.672;10.064;2024-01-11T08:04:32;21.73;;;7.68;;
3274;SDS011;1649;53.672;10.064;2024-01-11T08:06:58;21.77;;;9.10;;
3274;SDS011;1649;53.672;10.064;2024-01-11T08:09:24;30.38;;;7.88;;
3274;SDS011;1649;53.672;10.064;2024-01-11T08:11:50;19.92;;;6.72;;
3274;SDS011;1649;53.672;10.064;2024-01-11T08:14:17;16.67;;;6.97;;
3274;SDS011;1649;53.672;10.064;2024-01-11T08:16:43;17.33;;;8.07;;
3274;SDS011;1649;53.672;10.064;2024-01-11T08:19:08;19.73;;;7.03;;
3274;SDS011;1649;53.672;10.064;2024-01-11T08:21:35;19.88;;;8.25;;
3274;SDS011;1649;53.672;10.064;2024-01-11T08:24:00;19.17;;;7.37;;
3274;SDS011;1649;53.672;10.064;2024-01-11T08:26:27;19.88;;;8.05;;
3274;SDS011;1649;53.672;10.064;2024-01-11T08:28:54;16.65;;;7.10;;
3274;SDS011;1649;53.672;10.064;2024-01-11T08:31:20;21.20;;;7.50;;
3274;SDS011;1649;53.672;10.064;2024-01-11T08:33:46;19.43;;;7.90;;
3274;SDS011;1649;53.672;10.064;2024-01-11T08:36:11;18.00;;;6.57;;
3274;SDS011;1649;53.672;10.064;2024-01-11T08:38:37;21.43;;;8.10;;
3274;SDS011;1649;53.672;10.064;2024-01-11T08:41:03;21.48;;;7.90;;
3274;SDS011;1649;53.672;10.064;2024-01-11T08:43:29;19.47;;;7.30;;
3274;SDS011;1649;53.672;10.064;2024-01-11T08:45:54;20.40;;;7.33;;
3274;SDS011;1649;53.672;10.064;2024-01-11T08:48:20;21.20;;;6.90;;
3274;SDS011;1649;53.672;10.064;2024-01-11T08:50:46;17.67;;;7.10;;
3274;SDS011;1649;53.672;10.064;2024-01-11T08:53:12;18.73;;;6.30;;
3274;SDS011;1649;53.672;10.064;2024-01-11T08:55:37;16.27;;;6.87;;
3274;SDS011;1649;53.672;10.064;2024-01-11T08:58:03;25.60;;;7.07;;
3274;SDS011;1649;53.672;10.064;2024-01-11T09:00:29;15.73;;;6.22;;
3274;SDS011;1649;53.672;10.064;2024-01-11T09:02:54;16.23;;;6.30;;
3274;SDS011;1649;53.672;10.064;2024-01-11T09:05:20;17.07;;;6.53;;
3274;SDS011;1649;53.672;10.064;2024-01-11T09:07:46;17.13;;;7.23;;
3274;SDS011;1649;53.672;10.064;2024-01-11T09:10:12;15.13;;;6.77;;
3274;SDS011;1649;53.672;10.064;2024-01-11T09:12:37;21.07;;;6.57;;
3274;SDS011;1649;53.672;10.064;2024-01-11T09:15:03;16.25;;;6.70;;
3274;SDS011;1649;53.672;10.064;2024-01-11T09:17:29;15.50;;;7.10;;
3274;SDS011;1649;53.672;10.064;2024-01-11T09:19:55;15.40;;;6.40;;
3274;SDS011;1649;53.672;10.064;2024-01-11T09:22:20;22.77;;;8.83;;
3274;SDS011;1649;53.672;10.064;2024-01-11T09:24:46;23.03;;;7.67;;
3274;SDS011;1649;53.672;10.064;2024-01-11T09:27:11;19.37;;;7.80;;
3274;SDS011;1649;53.672;10.064;2024-01-11T09:29:42;25.77;;;9.20;;
3274;SDS011;1649;53.672;10.064;2024-01-11T09:32:10;24.88;;;8.30;;
3274;SDS011;1649;53.672;10.064;2024-01-11T09:34:37;28.87;;;9.57;;
3274;SDS011;1649;53.672;10.064;2024-01-11T09:37:02;20.63;;;8.90;;
3274;SDS011;1649;53.672;10.064;2024-01-11T09:39:28;25.87;;;8.80;;
3274;SDS011;1649;53.672;10.064;2024-01-11T09:42:06;22.53;;;9.20;;
3274;SDS011;1649;53.672;10.064;2024-01-11T09:44:34;24.90;;;9.23;;
3274;SDS011;1649;53.672;10.064;2024-01-11T09:47:01;22.17;;;8.48;;
3274;SDS011;1649;53.672;10.064;2024-01-11T09:49:27;28.37;;;9.97;;
3274;SDS011;1649;53.672;10.064;2024-01-11T09:51:55;26.07;;;10.27;;
3274;SDS011;1649;53.672;10.064;2024-01-11T09:54:22;25.07;;;9.20;;
3274;SDS011;1649;53.672;10.064;2024-01-11T09:56:50;30.00;;;10.10;;
3274;SDS011;1649;53.672;10.064;2024-01-11T09:59:19;31.30;;;10.05;;
3274;SDS011;1649;53.672;10.064;2024-01-11T10:01:49;22.03;;;8.30;;
3274;SDS011;1649;53.672;10.064;2024-01-11T10:04:15;28.13;;;9.60;;
3274;SDS011;1649;53.672;10.064;2024-01-11T10:06:41;25.63;;;9.48;;
3274;SDS011;1649;53.672;10.064;2024-01-11T10:09:07;21.40;;;9.23;;
3274;SDS011;1649;53.672;10.064;2024-01-11T10:11:33;23.30;;;9.20;;
3274;SDS011;1649;53.672;10.064;2024-01-11T10:13:59;22.37;;;9.30;;
3274;SDS011;1649;53.672;10.064;2024-01-11T10:16:27;25.60;;;9.50;;
3274;SDS011;1649;53.672;10.064;2024-01-11T10:18:54;26.20;;;10.93;;
3274;SDS011;1649;53.672;10.064;2024-01-11T10:21:20;24.00;;;9.90;;
3274;SDS011;1649;53.672;10.064;2024-01-11T10:23:46;29.63;;;9.37;;
3274;SDS011;1649;53.672;10.064;2024-01-11T10:26:12;24.20;;;9.83;;
3274;SDS011;1649;53.672;10.064;2024-01-11T10:28:42;24.67;;;8.60;;
3274;SDS011;1649;53.672;10.064;2024-01-11T10:31:11;25.77;;;9.90;;
3274;SDS011;1649;53.672;10.064;2024-01-11T10:33:37;27.97;;;11.20;;
3274;SDS011;1649;53.672;10.064;2024-01-11T10:36:02;30.33;;;9.77;;
3274;SDS011;1649;53.672;10.064;2024-01-11T10:38:29;21.60;;;9.00;;
3274;SDS011;1649;53.672;10.064;2024-01-11T10:40:55;29.80;;;10.67;;
3274;SDS011;1649;53.672;10.064;2024-01-11T10:43:25;26.73;;;9.52;;
3274;SDS011;1649;53.672;10.064;2024-01-11T10:45:51;24.77;;;9.97;;
3274;SDS011;1649;53.672;10.064;2024-01-11T10:48:21;27.43;;;8.57;;
3274;SDS011;1649;53.672;10.064;2024-01-11T10:50:51;22.97;;;7.93;;
3274;SDS011;1649;53.672;10.064;2024-01-11T10:56:11;24.70;;;8.30;;
3274;SDS011;1649;53.672;10.064;2024-01-11T10:58:37;20.17;;;7.63;;
3274;SDS011;1649;53.672;10.064;2024-01-11T11:01:05;20.67;;;8.30;;
3274;SDS011;1649;53.672;10.064;2024-01-11T11:03:32;17.00;;;7.57;;
3274;SDS011;1649;53.672;10.064;2024-01-11T11:06:00;20.53;;;7.80;;
3274;SDS011;1649;53.672;10.064;2024-01-11T11:08:26;22.90;;;8.10;;
3274;SDS011;1649;53.672;10.064;2024-01-11T11:10:55;23.63;;;8.47;;
3274;SDS011;1649;53.672;10.064;2024-01-11T11:13:22;19.50;;;7.50;;
3274;SDS011;1649;53.672;10.064;2024-01-11T11:15:48;17.20;;;8.10;;
3274;SDS011;1649;53.672;10.064;2024-01-11T11:18:14;24.47;;;7.83;;
3274;SDS011;1649;53.672;10.064;2024-01-11T11:20:41;21.20;;;8.57;;
3274;SDS011;1649;53.672;10.064;2024-01-11T11:23:07;29.67;;;9.50;;
3274;SDS011;1649;53.672;10.064;2024-01-11T11:25:35;24.47;;;9.17;;
3274;SDS011;1649;53.672;10.064;2024-01-11T11:28:01;26.63;;;9.33;;
3274;SDS011;1649;53.672;10.064;2024-01-11T11:30:29;21.00;;;8.73;;
3274;SDS011;1649;53.672;10.064;2024-01-11T11:32:55;17.60;;;7.63;;
3274;SDS011;1649;53.672;10.064;2024-01-11T11:35:24;25.47;;;8.53;;
3274;SDS011;1649;53.672;10.064;2024-01-11T11:37:53;24.27;;;8.97;;
3274;SDS011;1649;53.672;10.064;2024-01-11T11:40:21;22.57;;;8.93;;
3274;SDS011;1649;53.672;10.064;2024-01-11T11:42:47;15.47;;;7.90;;
3274;SDS011;1649;53.672;10.064;2024-01-11T11:45:13;21.37;;;9.00;;
3274;SDS011;1649;53.672;10.064;2024-01-11T11:47:50;23.50;;;8.67;;
3274;SDS011;1649;53.672;10.064;2024-01-11T11:50:16;22.87;;;8.37;;
3274;SDS011;1649;53.672;10.064;2024-01-11T11:52:42;25.47;;;8.60;;
3274;SDS011;1649;53.672;10.064;2024-01-11T11:55:09;23.50;;;9.33;;
3274;SDS011;1649;53.672;10.064;2024-01-11T11:57:36;26.97;;;9.30;;
3274;SDS011;1649;53.672;10.064;2024-01-11T12:00:02;23.77;;;8.93;;
3274;SDS011;1649;53.672;10.064;2024-01-11T12:02:31;19.50;;;8.00;;
3274;SDS011;1649;53.672;10.064;2024-01-11T12:05:00;22.60;;;9.40;;
3274;SDS011;1649;53.672;10.064;2024-01-11T12:07:26;23.30;;;9.60;;
3274;SDS011;1649;53.672;10.064;2024-01-11T12:09:52;21.33;;;9.27;;
3274;SDS011;1649;53.672;10.064;2024-01-11T12:12:18;19.53;;;9.80;;
3274;SDS011;1649;53.672;10.064;2024-01-11T12:14:45;27.77;;;9.90;;
3274;SDS011;1649;53.672;10.064;2024-01-11T12:17:12;20.90;;;8.10;;
3274;SDS011;1649;53.672;10.064;2024-01-11T12:19:37;20.00;;;11.67;;
3274;SDS011;1649;53.672;10.064;2024-01-11T12:22:03;22.73;;;10.10;;
3274;SDS011;1649;53.672;10.064;2024-01-11T12:24:29;22.33;;;8.80;;
3274;SDS011;1649;53.672;10.064;2024-01-11T12:26:56;25.00;;;9.67;;
3274;SDS011;1649;53.672;10.064;2024-01-11T12:29:25;30.73;;;9.90;;
3274;SDS011;1649;53.672;10.064;2024-01-11T12:31:54;29.17;;;9.93;;
3274;SDS011;1649;53.672;10.064;2024-01-11T12:34:22;24.20;;;10.60;;
3274;SDS011;1649;53.672;10.064;2024-01-11T12:36:48;28.40;;;10.90;;
3274;SDS011;1649;53.672;10.064;2024-01-11T12:39:14;27.07;;;10.90;;
3274;SDS011;1649;53.672;10.064;2024-01-11T12:41:41;25.63;;;11.27;;
3274;SDS011;1649;53.672;10.064;2024-01-11T12:44:08;29.80;;;11.17;;
3274;SDS011;1649;53.672;10.064;2024-01-11T12:46:33;25.67;;;11.30;;
3274;SDS011;1649;53.672;10.064;2024-01-11T12:48:59;24.50;;;10.47;;
3274;SDS011;1649;53.672;10.064;2024-01-11T12:51:25;25.53;;;10.60;;
3274;SDS011;1649;53.672;10.064;2024-01-11T12:53:52;27.40;;;10.87;;
3274;SDS011;1649;53.672;10.064;2024-01-11T12:56:18;26.13;;;12.10;;
3274;SDS011;1649;53.672;10.064;2024-01-11T12:58:46;23.10;;;9.90;;
3274;SDS011;1649;53.672;10.064;2024-01-11T13:01:12;25.40;;;11.97;;
3274;SDS011;1649;53.672;10.064;2024-01-11T13:03:39;26.47;;;10.50;;
3274;SDS011;1649;53.672;10.064;2024-01-11T13:06:08;24.00;;;9.70;;
3274;SDS011;1649;53.672;10.064;2024-01-11T13:08:36;24.53;;;10.30;;
3274;SDS011;1649;53.672;10.064;2024-01-11T13:11:04;28.80;;;11.87;;
3274;SDS011;1649;53.672;10.064;2024-01-11T13:13:34;24.23;;;9.97;;
3274;SDS011;1649;53.672;10.064;2024-01-11T13:16:00;23.30;;;10.03;;
3274;SDS011;1649;53.672;10.064;2024-01-11T13:18:25;22.27;;;10.07;;
3274;SDS011;1649;53.672;10.064;2024-01-11T13:20:51;27.23;;;11.53;;
3274;SDS011;1649;53.672;10.064;2024-01-11T13:23:17;25.53;;;11.53;;
3274;SDS011;1649;53.672;10.064;2024-01-11T13:25:48;30.33;;;10.80;;
3274;SDS011;1649;53.672;10.064;2024-01-11T13:28:17;22.80;;;9.57;;
3274;SDS011;1649;53.672;10.064;2024-01-11T13:30:44;23.33;;;10.73;;
3274;SDS011;1649;53.672;10.064;2024-01-11T13:33:10;26.30;;;10.37;;
3274;SDS011;1649;53.672;10.064;2024-01-11T13:35:37;26.30;;;10.03;;
3274;SDS011;1649;53.672;10.064;2024-01-11T13:38:04;25.60;;;9.20;;
3274;SDS011;1649;53.672;10.064;2024-01-11T13:40:30;23.13;;;9.57;;
3274;SDS011;1649;53.672;10.064;2024-01-11T13:42:57;19.80;;;9.50;;
3274;SDS011;1649;53.672;10.064;2024-01-11T13:45:23;22.40;;;10.67;;
3274;SDS011;1649;53.672;10.064;2024-01-11T13:47:49;19.77;;;9.30;;
3274;SDS011;1649;53.672;10.064;2024-01-11T13:50:15;19.97;;;10.70;;
3274;SDS011;1649;53.672;10.064;2024-01-11T13:52:41;24.03;;;9.70;;
3274;SDS011;1649;53.672;10.064;2024-01-11T13:55:07;19.93;;;10.57;;
3274;SDS011;1649;53.672;10.064;2024-01-11T13:57:35;23.50;;;8.80;;
3274;SDS011;1649;53.672;10.064;2024-01-11T14:00:01;21.63;;;10.40;;
3274;SDS011;1649;53.672;10.064;2024-01-11T14:02:28;27.33;;;10.27;;
3274;SDS011;1649;53.672;10.064;2024-01-11T14:04:53;19.47;;;8.43;;
3274;SDS011;1649;53.672;10.064;2024-01-11T14:07:19;23.73;;;9.67;;
3274;SDS011;1649;53.672;10.064;2024-01-11T14:09:44;17.87;;;8.43;;
3274;SDS011;1649;53.672;10.064;2024-01-11T14:12:10;23.60;;;9.00;;
3274;SDS011;1649;53.672;10.064;2024-01-11T14:14:36;20.33;;;8.30;;
3274;SDS011;1649;53.672;10.064;2024-01-11T14:17:01;22.87;;;7.10;;
3274;SDS011;1649;53.672;10.064;2024-01-11T14:19:27;21.67;;;8.27;;
3274;SDS011;1649;53.672;10.064;2024-01-11T14:21:53;16.83;;;7.20;;
3274;SDS011;1649;53.672;10.064;2024-01-11T14:24:18;18.70;;;8.20;;
3274;SDS011;1649;53.672;10.064;2024-01-11T14:26:44;20.10;;;7.83;;
3274;SDS011;1649;53.672;10.064;2024-01-11T14:29:09;15.37;;;7.77;;
3274;SDS011;1649;53.672;10.064;2024-01-11T14:31:35;19.67;;;7.70;;
3274;SDS011;1649;53.672;10.064;2024-01-11T14:34:02;19.17;;;7.90;;
3274;SDS011;1649;53.672;10.064;2024-01-11T14:36:28;19.00;;;7.60;;
3274;SDS011;1649;53.672;10.064;2024-01-11T14:38:53;16.13;;;7.60;;